createdAt,value
2017-11-22T00:01:29.889Z,9.30
2017-11-22T00:03:57.497Z,9.20
2017-11-22T00:06:25.839Z,9.30
2017-11-22T00:08:53.436Z,9.30
2017-11-22T00:11:21.764Z,9.30
2017-11-22T00:13:49.340Z,9.30
2017-11-22T00:16:16.945Z,9.30
2017-11-22T00:18:45.291Z,9.30
2017-11-22T00:21:12.882Z,9.30
2017-11-22T00:23:41.229Z,9.30
2017-11-22T00:26:08.858Z,9.30
2017-11-22T00:28:36.432Z,9.30
2017-11-22T00:31:03.998Z,9.30
2017-11-22T00:33:31.597Z,9.30
2017-11-22T00:35:59.176Z,9.30
2017-11-22T00:38:27.557Z,9.30
2017-11-22T00:40:55.904Z,9.30
2017-11-22T00:43:23.494Z,9.30
2017-11-22T00:45:51.073Z,9.30
2017-11-22T00:48:19.402Z,9.30
2017-11-22T00:50:47.012Z,9.30
2017-11-22T00:53:15.360Z,9.40
2017-11-22T00:55:42.967Z,9.40
2017-11-22T00:58:10.552Z,9.30
2017-11-22T01:00:38.140Z,9.40
2017-11-22T01:03:05.719Z,9.30
2017-11-22T01:05:33.301Z,9.40
2017-11-22T01:08:01.667Z,9.30
2017-11-22T01:10:29.234Z,9.30
2017-11-22T01:12:57.608Z,9.30
2017-11-22T01:15:25.199Z,9.30
2017-11-22T01:17:52.817Z,9.30
2017-11-22T01:20:20.409Z,9.30
2017-11-22T01:22:48.775Z,9.30
2017-11-22T01:25:16.348Z,9.30
2017-11-22T01:27:44.711Z,9.40
2017-11-22T01:30:12.327Z,9.40
2017-11-22T01:32:39.923Z,9.40
2017-11-22T01:35:07.518Z,9.40
2017-11-22T01:37:35.857Z,9.50
2017-11-22T01:40:03.465Z,9.50
2017-11-22T01:42:31.797Z,9.50
2017-11-22T01:44:59.375Z,9.50
2017-11-22T01:47:26.976Z,9.50
2017-11-22T01:49:55.304Z,9.50
2017-11-22T01:52:22.903Z,9.50
2017-11-22T01:54:50.471Z,9.50
2017-11-22T01:57:18.843Z,9.50
2017-11-22T01:59:46.398Z,9.50
2017-11-22T02:02:13.961Z,9.60
2017-11-22T02:04:41.572Z,9.60
2017-11-22T02:07:09.148Z,9.60
2017-11-22T02:09:36.747Z,9.60
2017-11-22T02:12:04.319Z,9.60
2017-11-22T02:14:31.940Z,9.60
2017-11-22T02:16:59.534Z,9.60
2017-11-22T02:19:27.132Z,9.60
2017-11-22T02:21:54.734Z,9.60
2017-11-22T02:24:22.323Z,9.60
2017-11-22T02:26:49.932Z,9.60
2017-11-22T02:29:17.516Z,9.70
2017-11-22T02:31:45.125Z,9.70
2017-11-22T02:34:12.709Z,9.70
2017-11-22T02:36:40.308Z,9.70
2017-11-22T02:39:07.921Z,9.70
2017-11-22T02:41:36.272Z,9.70
2017-11-22T02:44:03.877Z,9.70
2017-11-22T02:46:31.477Z,9.70
2017-11-22T02:48:59.084Z,9.70
2017-11-22T02:51:27.418Z,9.70
2017-11-22T02:53:54.999Z,9.70
2017-11-22T02:56:22.606Z,9.70
2017-11-22T02:58:50.206Z,9.70
2017-11-22T03:01:17.820Z,9.70
2017-11-22T03:03:46.168Z,9.80
2017-11-22T03:06:13.781Z,9.80
2017-11-22T03:08:41.372Z,9.80
2017-11-22T03:11:08.931Z,9.80
2017-11-22T03:13:36.549Z,9.80
2017-11-22T03:16:04.906Z,9.80
2017-11-22T03:18:32.485Z,9.80
2017-11-22T03:21:00.852Z,9.80
2017-11-22T03:23:28.423Z,9.80
2017-11-22T03:25:55.988Z,9.80
2017-11-22T03:28:24.366Z,9.90
2017-11-22T03:30:52.732Z,9.90
2017-11-22T03:33:20.320Z,9.90
2017-11-22T03:35:48.713Z,10.00
2017-11-22T03:38:16.292Z,10.00
2017-11-22T03:40:43.887Z,9.90
2017-11-22T03:43:11.478Z,9.90
2017-11-22T03:45:39.843Z,10.00
2017-11-22T03:48:13.188Z,10.00
2017-11-22T03:50:46.413Z,10.00
2017-11-22T03:53:19.761Z,10.00
2017-11-22T03:55:48.112Z,10.00
2017-11-22T03:58:17.577Z,9.90
2017-11-22T04:00:45.203Z,10.00
2017-11-22T04:03:20.127Z,10.00
2017-11-22T04:05:57.521Z,10.00
2017-11-22T04:08:26.924Z,10.00
2017-11-22T04:10:54.504Z,10.00
2017-11-22T04:13:22.893Z,10.00
2017-11-22T04:15:51.230Z,10.00
2017-11-22T04:18:19.727Z,10.00
2017-11-22T04:21:01.954Z,10.00
2017-11-22T04:23:30.311Z,10.00
2017-11-22T04:25:57.887Z,10.00
2017-11-22T04:28:26.284Z,10.00
2017-11-22T04:30:53.872Z,10.00
2017-11-22T04:33:21.438Z,10.00
2017-11-22T04:35:49.034Z,10.00
2017-11-22T04:38:16.617Z,10.10
2017-11-22T04:40:44.205Z,10.00
2017-11-22T04:43:13.673Z,10.00
2017-11-22T04:45:41.267Z,10.00
2017-11-22T04:48:09.608Z,10.10
2017-11-22T04:50:37.236Z,10.10
2017-11-22T04:53:04.801Z,10.10
2017-11-22T04:55:32.384Z,10.10
2017-11-22T04:57:59.996Z,10.10
2017-11-22T05:00:28.339Z,10.10
2017-11-22T05:02:55.916Z,10.10
2017-11-22T05:05:23.548Z,10.10
2017-11-22T05:07:51.885Z,10.10
2017-11-22T05:10:19.472Z,10.10
2017-11-22T05:12:47.086Z,10.10
2017-11-22T05:15:14.668Z,10.10
2017-11-22T05:17:42.992Z,10.10
2017-11-22T05:20:10.595Z,10.10
2017-11-22T05:22:38.200Z,10.10
2017-11-22T05:25:05.772Z,10.10
2017-11-22T05:27:33.384Z,10.10
2017-11-22T05:30:01.754Z,10.10
2017-11-22T05:32:29.360Z,10.10
2017-11-22T05:34:56.968Z,10.10
2017-11-22T05:37:26.173Z,10.10
2017-11-22T05:39:53.774Z,10.10
2017-11-22T05:42:22.322Z,10.10
2017-11-22T05:44:49.915Z,10.10
2017-11-22T05:47:18.267Z,10.20
2017-11-22T05:49:45.893Z,10.10
2017-11-22T05:52:13.467Z,10.10
2017-11-22T05:54:41.049Z,10.10
2017-11-22T05:57:08.984Z,10.10
2017-11-22T05:59:36.556Z,10.10
2017-11-22T06:02:04.121Z,10.10
2017-11-22T06:04:31.869Z,10.10
2017-11-22T06:06:59.463Z,10.10
2017-11-22T06:09:27.043Z,10.10
2017-11-22T06:11:54.654Z,10.10
2017-11-22T06:14:22.222Z,10.10
2017-11-22T06:16:49.823Z,10.10
2017-11-22T06:19:17.428Z,10.10
2017-11-22T06:21:45.005Z,10.00
2017-11-22T06:24:12.573Z,10.00
2017-11-22T06:26:40.203Z,10.00
2017-11-22T06:29:07.800Z,10.00
2017-11-22T06:31:35.395Z,10.00
2017-11-22T06:34:03.008Z,10.00
2017-11-22T06:36:30.601Z,10.00
2017-11-22T06:38:58.166Z,10.00
2017-11-22T06:41:25.779Z,10.00
2017-11-22T06:43:53.373Z,10.00
2017-11-22T06:46:20.973Z,10.00
2017-11-22T06:48:48.588Z,10.00
2017-11-22T06:51:16.153Z,10.00
2017-11-22T06:53:43.743Z,10.00
2017-11-22T06:56:11.374Z,10.00
2017-11-22T06:58:38.951Z,10.00
2017-11-22T07:01:06.527Z,10.00
2017-11-22T07:03:40.605Z,10.00
2017-11-22T07:06:08.188Z,10.00
2017-11-22T07:08:35.764Z,10.00
2017-11-22T07:11:03.375Z,10.00
2017-11-22T07:13:31.726Z,10.00
2017-11-22T07:15:59.309Z,10.00
2017-11-22T07:18:26.943Z,10.00
2017-11-22T07:20:54.532Z,10.00
2017-11-22T07:23:22.139Z,10.00
2017-11-22T07:25:49.733Z,10.10
2017-11-22T07:28:17.318Z,10.10
2017-11-22T07:30:45.690Z,10.10
2017-11-22T07:33:13.300Z,10.10
2017-11-22T07:35:46.650Z,10.10
2017-11-22T07:38:14.266Z,10.10
2017-11-22T07:40:41.876Z,10.10
2017-11-22T07:43:09.480Z,10.20
2017-11-22T07:45:37.096Z,10.20
2017-11-22T07:48:10.279Z,10.20
2017-11-22T07:50:37.893Z,10.20
2017-11-22T07:53:05.497Z,10.20
2017-11-22T07:55:33.091Z,10.20
2017-11-22T07:58:00.724Z,10.20
2017-11-22T08:00:28.309Z,10.30
2017-11-22T08:03:01.453Z,10.30
2017-11-22T08:05:29.025Z,10.30
2017-11-22T08:07:56.601Z,10.40
2017-11-22T08:10:24.269Z,10.30
2017-11-22T08:12:52.625Z,10.40
2017-11-22T08:15:20.205Z,10.40
2017-11-22T08:17:47.837Z,10.40
2017-11-22T08:20:15.413Z,10.40
2017-11-22T08:22:43.002Z,10.40
2017-11-22T08:25:13.698Z,10.50
2017-11-22T08:27:41.422Z,10.50
2017-11-22T08:30:08.994Z,10.40
2017-11-22T08:32:36.627Z,10.50
2017-11-22T08:35:04.204Z,10.60
2017-11-22T08:37:31.780Z,10.60
2017-11-22T08:39:59.388Z,10.60
2017-11-22T08:42:30.941Z,10.60
2017-11-22T08:44:58.513Z,10.60
2017-11-22T08:47:26.093Z,10.70
2017-11-22T08:49:53.627Z,10.70
2017-11-22T08:52:21.219Z,10.70
2017-11-22T08:54:55.141Z,10.70
2017-11-22T08:57:29.161Z,10.70
2017-11-22T09:00:06.410Z,10.70
2017-11-22T09:02:33.994Z,10.70
2017-11-22T09:05:01.550Z,10.70
2017-11-22T09:07:33.018Z,10.80
2017-11-22T09:10:00.593Z,10.80
2017-11-22T09:15:24.107Z,10.80
2017-11-22T09:17:55.075Z,10.90
2017-11-22T09:20:22.845Z,10.90
2017-11-22T09:22:50.399Z,10.90
2017-11-22T09:25:17.980Z,10.90
2017-11-22T09:27:51.058Z,10.90
2017-11-22T09:30:18.630Z,10.90
2017-11-22T09:32:46.221Z,10.90
2017-11-22T09:35:15.544Z,10.90
2017-11-22T09:37:43.144Z,11.00
2017-11-22T09:40:10.695Z,10.90
2017-11-22T09:42:39.035Z,11.00
2017-11-22T09:45:06.590Z,10.90
2017-11-22T09:47:35.918Z,10.90
2017-11-22T09:50:03.508Z,11.00
2017-11-22T09:52:31.054Z,11.00
2017-11-22T09:54:59.388Z,11.10
2017-11-22T09:57:26.933Z,11.10
2017-11-22T09:59:54.502Z,11.10
2017-11-22T10:02:22.065Z,11.20
2017-11-22T10:04:49.634Z,11.20
2017-11-22T10:07:17.209Z,11.20
2017-11-22T10:09:44.738Z,11.10
2017-11-22T10:12:12.312Z,11.20
2017-11-22T10:14:39.876Z,11.10
2017-11-22T10:17:12.306Z,11.00
2017-11-22T10:19:43.569Z,11.10
2017-11-22T10:22:11.139Z,11.10
2017-11-22T10:24:44.713Z,11.20
2017-11-22T10:27:18.798Z,11.30
2017-11-22T10:29:46.404Z,11.30
2017-11-22T10:32:20.678Z,11.40
2017-11-22T10:34:48.256Z,11.40
2017-11-22T10:37:15.795Z,11.50
2017-11-22T10:39:43.346Z,11.50
2017-11-22T10:42:10.911Z,11.50
2017-11-22T10:44:38.455Z,11.50
2017-11-22T10:47:06.015Z,11.40
2017-11-22T10:49:33.574Z,11.40
2017-11-22T10:52:01.139Z,11.40
2017-11-22T10:54:28.687Z,11.50
2017-11-22T10:56:56.382Z,11.60
2017-11-22T10:59:23.969Z,11.60
2017-11-22T11:01:51.525Z,11.60
2017-11-22T11:04:19.114Z,11.50
2017-11-22T11:06:47.434Z,11.60
2017-11-22T11:09:14.982Z,11.50
2017-11-22T11:11:42.569Z,11.60
2017-11-22T11:14:10.133Z,11.60
2017-11-22T11:16:37.682Z,11.60
2017-11-22T11:19:05.294Z,11.70
2017-11-22T11:21:32.845Z,11.60
2017-11-22T11:24:00.409Z,11.50
2017-11-22T11:26:27.991Z,11.50
2017-11-22T11:28:56.322Z,11.50
2017-11-22T11:31:23.859Z,11.60
2017-11-22T11:33:51.443Z,11.50
2017-11-22T11:36:30.814Z,11.50
2017-11-22T11:38:58.383Z,11.60
2017-11-22T11:41:26.927Z,11.60
2017-11-22T11:43:54.499Z,11.70
2017-11-22T11:46:22.076Z,11.60
2017-11-22T11:48:50.402Z,11.60
2017-11-22T11:51:17.964Z,11.60
2017-11-22T11:53:45.526Z,11.60
2017-11-22T11:56:13.064Z,11.70
2017-11-22T11:58:40.604Z,11.80
2017-11-22T12:01:08.175Z,11.90
2017-11-22T12:03:35.718Z,11.90
2017-11-22T12:06:04.787Z,11.90
2017-11-22T12:08:32.362Z,12.00
2017-11-22T12:10:59.903Z,12.00
2017-11-22T12:13:27.464Z,12.00
2017-11-22T12:15:55.043Z,12.10
2017-11-22T12:18:22.609Z,12.20
2017-11-22T12:21:00.805Z,12.50
2017-11-22T12:23:29.125Z,12.50
2017-11-22T12:25:56.668Z,12.60
2017-11-22T12:28:24.242Z,12.60
2017-11-22T12:30:51.796Z,12.70
2017-11-22T12:33:19.336Z,12.70
2017-11-22T12:35:46.914Z,12.70
2017-11-22T12:38:14.469Z,12.70
2017-11-22T12:40:42.007Z,12.70
2017-11-22T12:43:09.584Z,12.70
2017-11-22T12:45:37.122Z,12.70
2017-11-22T12:48:04.681Z,12.70
2017-11-22T12:50:33.036Z,12.60
2017-11-22T12:53:00.599Z,12.60
2017-11-22T12:55:28.180Z,12.60
2017-11-22T12:58:00.426Z,12.50
2017-11-22T13:00:27.984Z,12.50
2017-11-22T13:02:55.541Z,12.50
2017-11-22T13:05:23.132Z,12.50
2017-11-22T13:07:51.485Z,12.50
2017-11-22T13:10:19.819Z,12.50
2017-11-22T13:12:47.378Z,12.50
2017-11-22T13:15:14.968Z,12.50
2017-11-22T13:17:42.529Z,12.50
2017-11-22T13:20:10.093Z,12.50
2017-11-22T13:22:37.721Z,12.40
2017-11-22T13:25:05.266Z,12.40
2017-11-22T13:27:33.586Z,12.40
2017-11-22T13:30:01.154Z,12.40
2017-11-22T13:32:34.738Z,12.40
2017-11-22T13:35:02.299Z,12.40
2017-11-22T13:37:29.868Z,12.40
2017-11-22T13:39:57.427Z,12.40
2017-11-22T13:42:25.014Z,12.40
2017-11-22T13:44:53.343Z,12.40
2017-11-22T13:47:21.686Z,12.40
2017-11-22T13:49:49.245Z,12.40
2017-11-22T13:52:16.833Z,12.40
2017-11-22T13:54:44.371Z,12.30
2017-11-22T13:57:11.958Z,12.30
2017-11-22T13:59:40.285Z,12.20
2017-11-22T14:02:07.824Z,12.20
2017-11-22T14:04:35.417Z,12.30
2017-11-22T14:07:02.992Z,12.20
2017-11-22T14:09:30.628Z,12.10
2017-11-22T14:11:58.948Z,12.10
2017-11-22T14:14:26.531Z,12.10
2017-11-22T14:16:54.856Z,12.00
2017-11-22T14:19:22.403Z,12.00
2017-11-22T14:21:49.983Z,12.00
2017-11-22T14:24:17.533Z,12.10
2017-11-22T14:26:45.094Z,12.10
2017-11-22T14:29:12.655Z,12.10
2017-11-22T14:31:40.191Z,12.10
2017-11-22T14:34:08.498Z,11.90
2017-11-22T14:36:36.083Z,11.90
2017-11-22T14:39:03.638Z,11.90
2017-11-22T14:41:31.184Z,11.80
2017-11-22T14:43:58.787Z,11.80
2017-11-22T14:46:26.327Z,11.80
2017-11-22T14:48:53.888Z,11.80
2017-11-22T14:51:21.430Z,11.80
2017-11-22T14:53:49.037Z,11.70
2017-11-22T14:56:16.578Z,11.80
2017-11-22T14:58:44.105Z,11.80
2017-11-22T15:01:11.681Z,11.80
2017-11-22T15:03:39.212Z,11.70
2017-11-22T15:06:07.542Z,11.60
2017-11-22T15:08:35.092Z,11.60
2017-11-22T15:11:02.639Z,11.60
2017-11-22T15:13:30.213Z,11.60
2017-11-22T15:15:57.802Z,11.50
2017-11-22T15:18:25.374Z,11.50
2017-11-22T15:20:52.927Z,11.40
2017-11-22T15:23:20.460Z,11.40
2017-11-22T15:25:48.026Z,11.30
2017-11-22T15:28:15.558Z,11.20
2017-11-22T15:30:43.095Z,11.10
2017-11-22T15:33:10.662Z,11.10
2017-11-22T15:35:38.970Z,10.90
2017-11-22T15:38:06.544Z,10.90
2017-11-22T15:40:34.090Z,10.90
2017-11-22T15:43:01.652Z,10.90
2017-11-22T15:45:29.200Z,11.00
2017-11-22T15:47:57.510Z,11.10
2017-11-22T15:50:25.063Z,11.10
2017-11-22T15:52:52.646Z,11.00
2017-11-22T15:55:20.215Z,11.00
2017-11-22T15:57:47.765Z,10.90
2017-11-22T16:00:15.346Z,10.80
2017-11-22T16:02:42.907Z,10.80
2017-11-22T16:05:10.465Z,10.80
2017-11-22T16:07:38.033Z,10.80
2017-11-22T16:10:05.575Z,10.80
2017-11-22T16:12:33.157Z,10.80
2017-11-22T16:15:00.730Z,10.80
2017-11-22T16:17:29.051Z,10.70
2017-11-22T16:19:56.614Z,10.70
2017-11-22T16:22:24.183Z,10.70
2017-11-22T16:24:51.720Z,10.70
2017-11-22T16:27:20.993Z,10.70
2017-11-22T16:29:48.567Z,10.70
2017-11-22T16:32:16.108Z,10.60
2017-11-22T16:34:43.677Z,10.50
2017-11-22T16:37:11.262Z,10.50
2017-11-22T16:39:39.640Z,10.40
2017-11-22T16:42:07.947Z,10.40
2017-11-22T16:44:35.522Z,10.30
2017-11-22T16:47:03.055Z,10.40
2017-11-22T16:49:31.356Z,10.40
2017-11-22T16:51:58.914Z,10.40
2017-11-22T16:54:26.469Z,10.40
2017-11-22T16:56:54.064Z,10.40
2017-11-22T16:59:21.622Z,10.30
2017-11-22T17:01:49.176Z,10.20
2017-11-22T17:04:16.745Z,10.20
2017-11-22T17:06:44.310Z,10.10
2017-11-22T17:09:11.862Z,10.10
2017-11-22T17:11:39.790Z,10.00
2017-11-22T17:14:08.114Z,9.90
2017-11-22T17:16:35.686Z,9.90
2017-11-22T17:19:03.241Z,9.90
2017-11-22T17:21:30.827Z,9.80
2017-11-22T17:23:58.378Z,9.90
2017-11-22T17:26:25.929Z,9.80
2017-11-22T17:28:53.526Z,9.80
2017-11-22T17:31:21.850Z,9.80
2017-11-22T17:33:49.386Z,9.80
2017-11-22T17:36:16.970Z,9.80
2017-11-22T17:38:44.513Z,9.80
2017-11-22T17:41:12.836Z,9.70
2017-11-22T17:43:40.503Z,9.70
2017-11-22T17:46:08.060Z,9.60
2017-11-22T17:48:35.653Z,9.60
2017-11-22T17:51:03.209Z,9.60
2017-11-22T17:53:30.758Z,9.60
2017-11-22T17:55:58.329Z,9.60
2017-11-22T17:58:25.889Z,9.60
2017-11-22T18:00:53.484Z,9.60
2017-11-22T18:03:21.802Z,9.50
2017-11-22T18:05:49.352Z,9.50
2017-11-22T18:08:16.915Z,9.50
2017-11-22T18:10:44.487Z,9.50
2017-11-22T18:13:12.058Z,9.50
2017-11-22T18:15:39.607Z,9.50
2017-11-22T18:18:07.164Z,9.50
2017-11-22T18:20:34.744Z,9.50
2017-11-22T18:23:02.303Z,9.60
2017-11-22T18:25:29.838Z,9.60
2017-11-22T18:27:57.510Z,9.70
2017-11-22T18:30:25.038Z,9.70
2017-11-22T18:32:54.338Z,9.70
2017-11-22T18:35:22.663Z,9.70
2017-11-22T18:37:50.218Z,9.70
2017-11-22T18:40:17.766Z,9.70
2017-11-22T18:42:45.362Z,9.60
2017-11-22T18:45:12.917Z,9.60
2017-11-22T18:47:40.456Z,9.60
2017-11-22T18:50:08.031Z,9.70
2017-11-22T18:52:36.065Z,9.70
2017-11-22T18:55:04.409Z,9.70
2017-11-22T18:57:31.967Z,9.60
2017-11-22T18:59:59.540Z,9.70
2017-11-22T19:02:27.077Z,9.60
2017-11-22T19:04:54.643Z,9.60
2017-11-22T19:07:22.201Z,9.60
2017-11-22T19:09:49.738Z,9.50
2017-11-22T19:12:17.634Z,9.50
2017-11-22T19:14:45.188Z,9.40
2017-11-22T19:17:12.757Z,9.40
2017-11-22T19:19:40.331Z,9.40
2017-11-22T19:22:07.920Z,9.40
2017-11-22T19:24:35.475Z,9.30
2017-11-22T19:27:03.018Z,9.20
2017-11-22T19:29:31.369Z,9.10
2017-11-22T19:31:58.921Z,9.10
2017-11-22T19:34:26.516Z,9.00
2017-11-22T19:36:54.067Z,9.00
2017-11-22T19:39:22.381Z,8.80
2017-11-22T19:41:49.955Z,8.80
2017-11-22T19:44:17.525Z,8.70
2017-11-22T19:46:45.849Z,8.90
2017-11-22T19:49:13.434Z,8.90
2017-11-22T19:51:40.966Z,9.00
2017-11-22T19:54:08.533Z,9.10
2017-11-22T19:56:36.107Z,9.10
2017-11-22T19:59:03.640Z,9.20
2017-11-22T20:01:31.193Z,9.20
2017-11-22T20:03:58.769Z,9.30
2017-11-22T20:06:26.326Z,9.40
2017-11-22T20:08:53.857Z,9.40
2017-11-22T20:11:22.212Z,9.50
2017-11-22T20:13:49.766Z,9.50
2017-11-22T20:16:17.321Z,9.50
2017-11-22T20:18:44.892Z,9.40
2017-11-22T20:21:12.453Z,9.40
2017-11-22T20:23:39.991Z,9.40
2017-11-22T20:26:07.561Z,9.50
2017-11-22T20:28:35.109Z,9.50
2017-11-22T20:31:02.657Z,9.50
2017-11-22T20:33:30.222Z,9.50
2017-11-22T20:35:57.780Z,9.50
2017-11-22T20:38:25.346Z,9.50
2017-11-22T20:40:52.929Z,9.50
2017-11-22T20:43:20.487Z,9.40
2017-11-22T20:45:48.053Z,9.40
2017-11-22T20:48:15.619Z,9.40
2017-11-22T20:50:43.161Z,9.40
2017-11-22T20:53:10.711Z,9.40
2017-11-22T20:55:38.283Z,9.40
2017-11-22T20:58:05.818Z,9.40
2017-11-22T21:00:34.180Z,9.30
2017-11-22T21:03:01.724Z,9.30
2017-11-22T21:05:29.294Z,9.30
2017-11-22T21:07:56.933Z,9.20
2017-11-22T21:10:24.538Z,9.20
2017-11-22T21:12:52.854Z,9.20
2017-11-22T21:15:20.436Z,9.20
2017-11-22T21:17:48.006Z,9.20
2017-11-22T21:20:15.554Z,9.30
2017-11-22T21:22:43.123Z,9.30
2017-11-22T21:25:10.679Z,9.30
2017-11-22T21:27:38.204Z,9.40
2017-11-22T21:30:05.776Z,9.50
2017-11-22T21:32:33.367Z,9.50
2017-11-22T21:35:00.928Z,9.50
2017-11-22T21:37:28.487Z,9.40
2017-11-22T21:39:56.026Z,9.40
2017-11-22T21:42:23.593Z,9.40
2017-11-22T21:44:51.177Z,9.60
2017-11-22T21:47:18.719Z,9.50
2017-11-22T21:49:46.284Z,9.50
2017-11-22T21:52:13.863Z,9.50
2017-11-22T21:54:41.399Z,9.50
2017-11-22T21:57:08.936Z,9.60
2017-11-22T21:59:37.289Z,9.50
2017-11-22T22:02:04.827Z,9.50
2017-11-22T22:04:32.370Z,9.50
2017-11-22T22:06:59.949Z,9.50
2017-11-22T22:09:27.486Z,9.40
2017-11-22T22:11:55.023Z,9.40
2017-11-22T22:14:23.364Z,9.40
2017-11-22T22:16:50.920Z,9.40
2017-11-22T22:19:18.481Z,9.50
2017-11-22T22:21:46.043Z,9.40
2017-11-22T22:24:13.596Z,9.40
2017-11-22T22:26:41.158Z,9.40
2017-11-22T22:29:08.694Z,9.30
2017-11-22T22:31:36.258Z,9.20
2017-11-22T22:34:03.816Z,9.20
2017-11-22T22:36:31.355Z,9.20
2017-11-22T22:38:59.707Z,9.10
2017-11-22T22:41:27.239Z,9.10
2017-11-22T22:43:54.774Z,9.10
2017-11-22T22:46:23.109Z,9.10
2017-11-22T22:48:50.644Z,9.10
2017-11-22T22:51:18.196Z,9.10
2017-11-22T22:53:45.773Z,9.20
2017-11-22T22:56:13.328Z,9.20
2017-11-22T22:58:40.867Z,9.10
2017-11-22T23:01:08.451Z,9.10
2017-11-22T23:03:35.988Z,9.10
2017-11-22T23:06:03.567Z,9.10
2017-11-22T23:08:31.103Z,9.10
2017-11-22T23:10:59.398Z,9.10
2017-11-22T23:13:26.981Z,9.10
2017-11-22T23:15:54.515Z,9.10
2017-11-22T23:18:22.064Z,9.00
2017-11-22T23:20:50.388Z,9.10
2017-11-22T23:23:17.932Z,9.10
2017-11-22T23:25:45.515Z,9.00
2017-11-22T23:28:13.071Z,9.00
2017-11-22T23:30:40.620Z,9.00
2017-11-22T23:33:08.171Z,9.00
2017-11-22T23:35:35.739Z,9.20
2017-11-22T23:38:03.263Z,9.20
2017-11-22T23:40:31.589Z,9.30
2017-11-22T23:42:59.142Z,9.30
2017-11-22T23:45:26.725Z,9.30
2017-11-22T23:47:54.270Z,9.40
2017-11-22T23:50:21.837Z,9.50
2017-11-22T23:52:49.394Z,9.50
2017-11-22T23:55:16.941Z,9.50
2017-11-22T23:57:44.474Z,9.60
